Time;durP1;ratioP1;P1;durP2;ratioP2;P2;SDS_P1;SDS_P2;PMS_P1;PMS_P2;Temp;Humidity;BMP_temperature;BMP_pressure;BME280_temperature;BME280_humidity;BME280_pressure;Samples;Min_cycle;Max_cycle;Signal;HPM_P1;HPM_P2
2021/09/11 00:02:22;;;;;;;1.47;0.80;;;22.40;99.90;;;;;;5144667;27;20524;-42
2021/09/11 00:04:53;;;;;;;1.90;0.97;;;22.40;99.90;;;;;;5143575;27;20482;-43
2021/09/11 00:07:26;;;;;;;2.17;1.23;;;22.50;99.90;;;;;;5143324;27;20472;-41
2021/09/11 00:09:57;;;;;;;1.30;1.00;;;22.30;99.90;;;;;;5140213;27;20441;-44
2021/09/11 00:12:28;;;;;;;2.83;1.23;;;22.30;99.90;;;;;;5143953;27;20457;-44
2021/09/11 00:14:59;;;;;;;1.57;1.23;;;22.30;99.90;;;;;;5143085;27;20533;-42
2021/09/11 00:17:30;;;;;;;0.83;0.83;;;22.40;99.90;;;;;;5143754;27;20512;-42
2021/09/11 00:20:01;;;;;;;1.53;0.73;;;22.40;99.90;;;;;;5143141;27;20436;-42
2021/09/11 00:22:34;;;;;;;2.40;1.10;;;22.40;99.90;;;;;;5144111;27;20640;-42
2021/09/11 00:25:05;;;;;;;1.27;1.17;;;22.40;99.90;;;;;;5143191;27;20416;-41
2021/09/11 00:27:36;;;;;;;1.13;1.00;;;22.50;99.90;;;;;;5143108;27;20441;-41
2021/09/11 00:30:08;;;;;;;1.00;0.93;;;22.40;99.90;;;;;;5144122;27;20995;-42
2021/09/11 00:32:43;;;;;;;1.63;0.93;;;22.30;99.90;;;;;;5143722;27;20469;-42
2021/09/11 00:35:16;;;;;;;1.00;0.80;;;22.20;99.90;;;;;;5140949;27;20456;-43
2021/09/11 00:37:49;;;;;;;1.60;1.10;;;22.30;99.90;;;;;;5143242;27;21049;-42
2021/09/11 00:40:20;;;;;;;3.13;1.33;;;22.50;99.90;;;;;;5144086;27;20505;-42
2021/09/11 00:42:51;;;;;;;1.90;1.37;;;22.40;99.90;;;;;;5144384;27;20439;-42
2021/09/11 00:45:25;;;;;;;1.00;1.00;;;22.10;99.90;;;;;;5143814;27;20480;-42
2021/09/11 00:47:56;;;;;;;2.43;1.50;;;22.10;99.90;;;;;;5143949;27;20449;-41
2021/09/11 00:50:27;;;;;;;1.03;0.97;;;22.40;99.90;;;;;;5144218;27;20503;-42
2021/09/11 00:52:59;;;;;;;1.50;1.00;;;22.40;99.90;;;;;;5143625;27;20444;-42
2021/09/11 00:55:30;;;;;;;3.90;1.17;;;22.40;99.90;;;;;;5143476;27;20452;-42
2021/09/11 00:58:01;;;;;;;5.23;1.33;;;22.30;99.90;;;;;;5133850;27;20463;-42
2021/09/11 01:00:33;;;;;;;3.23;1.30;;;22.30;99.90;;;;;;5138367;27;20577;-44
2021/09/11 01:03:04;;;;;;;2.70;1.00;;;22.40;99.90;;;;;;5131775;27;20476;-43
2021/09/11 01:05:35;;;;;;;1.77;0.90;;;22.30;99.90;;;;;;5130379;27;20445;-42
2021/09/11 01:08:08;;;;;;;1.00;0.90;;;22.30;99.90;;;;;;5131034;27;20427;-42
2021/09/11 01:10:40;;;;;;;1.90;1.80;;;22.40;99.90;;;;;;5127194;27;20429;-43
2021/09/11 01:13:11;;;;;;;3.73;3.33;;;22.20;99.90;;;;;;5127407;28;20553;-42
2021/09/11 01:15:43;;;;;;;4.10;3.80;;;22.10;99.90;;;;;;5147063;27;20468;-42
2021/09/11 01:18:16;;;;;;;1.20;1.20;;;21.90;99.90;;;;;;5168625;27;20958;-41
2021/09/11 01:20:47;;;;;;;4.20;1.20;;;21.80;99.90;;;;;;5151509;27;20509;-41
2021/09/11 01:23:20;;;;;;;4.80;4.50;;;21.90;99.90;;;;;;5142380;27;20525;-42
2021/09/11 01:25:52;;;;;;;5.57;5.17;;;21.90;99.90;;;;;;5147067;27;20445;-42
2021/09/11 01:28:27;;;;;;;2.50;1.50;;;21.70;99.90;;;;;;5146868;27;20456;-42
2021/09/11 01:30:58;;;;;;;1.40;1.30;;;21.60;99.90;;;;;;5138922;27;20456;-42
2021/09/11 01:33:29;;;;;;;2.13;1.93;;;21.50;99.90;;;;;;5146982;27;20476;-42
2021/09/11 01:36:00;;;;;;;2.00;1.50;;;21.50;99.90;;;;;;5146604;27;20464;-41
2021/09/11 01:38:31;;;;;;;2.70;1.07;;;21.30;99.90;;;;;;5145582;27;20488;-42
2021/09/11 01:41:04;;;;;;;3.43;1.50;;;21.30;99.90;;;;;;5145560;27;20451;-42
2021/09/11 01:43:35;;;;;;;2.30;0.80;;;21.10;99.90;;;;;;5147115;27;20459;-42
2021/09/11 01:46:08;;;;;;;1.83;0.80;;;21.10;99.90;;;;;;5145796;27;20444;-41
2021/09/11 01:48:40;;;;;;;1.07;1.00;;;21.10;99.90;;;;;;5147010;27;20427;-42
2021/09/11 01:51:11;;;;;;;2.00;1.40;;;21.00;99.90;;;;;;5146998;27;20419;-42
2021/09/11 01:53:42;;;;;;;2.20;0.97;;;21.00;99.90;;;;;;5146528;27;20484;-42
2021/09/11 01:56:15;;;;;;;2.77;1.00;;;21.00;99.90;;;;;;5146530;27;20514;-42
2021/09/11 01:58:46;;;;;;;1.67;1.20;;;20.90;99.90;;;;;;5146666;27;20469;-42
2021/09/11 02:01:17;;;;;;;1.60;1.23;;;20.90;99.90;;;;;;5146432;27;20450;-42
2021/09/11 02:03:48;;;;;;;2.50;1.10;;;20.90;99.90;;;;;;5146289;27;20441;-41
2021/09/11 02:06:21;;;;;;;1.83;1.00;;;20.90;99.90;;;;;;5145193;27;20482;-42
2021/09/11 02:08:52;;;;;;;1.23;1.13;;;20.90;99.90;;;;;;5145729;27;20420;-42
2021/09/11 02:11:27;;;;;;;2.40;1.00;;;21.00;99.90;;;;;;5146947;27;20423;-42
2021/09/11 02:13:58;;;;;;;2.97;1.10;;;20.90;99.90;;;;;;5146174;27;20887;-42
2021/09/11 02:16:29;;;;;;;1.70;1.10;;;21.00;99.90;;;;;;5146515;27;20867;-42
2021/09/11 02:19:00;;;;;;;1.40;1.03;;;20.90;99.90;;;;;;5146390;27;20427;-42
2021/09/11 02:21:31;;;;;;;2.77;1.23;;;20.80;99.90;;;;;;5145805;27;20441;-42
2021/09/11 02:24:02;;;;;;;1.33;1.23;;;20.70;99.90;;;;;;5145077;27;20445;-42
2021/09/11 02:26:35;;;;;;;1.20;1.10;;;20.50;99.90;;;;;;5145486;27;20451;-42
2021/09/11 02:29:07;;;;;;;0.87;0.87;;;20.50;99.90;;;;;;5145725;27;20448;-42
2021/09/11 02:31:38;;;;;;;3.33;0.97;;;20.50;99.90;;;;;;5146551;27;20420;-42
2021/09/11 02:34:09;;;;;;;1.83;1.40;;;20.40;99.90;;;;;;5145944;27;20548;-42
2021/09/11 02:36:40;;;;;;;1.30;1.20;;;20.40;99.90;;;;;;5146262;27;20452;-42
2021/09/11 02:39:11;;;;;;;2.20;1.30;;;20.40;99.90;;;;;;5145380;27;20461;-42
2021/09/11 02:41:43;;;;;;;7.00;1.60;;;20.50;99.90;;;;;;5146080;27;20523;-42
2021/09/11 02:44:15;;;;;;;2.90;1.77;;;20.40;99.90;;;;;;5137810;27;20472;-42
2021/09/11 02:46:46;;;;;;;1.30;1.20;;;20.40;99.90;;;;;;5146068;27;20452;-42
2021/09/11 02:49:17;;;;;;;1.63;0.93;;;20.40;99.90;;;;;;5145369;27;20416;-42
2021/09/11 02:51:47;;;;;;;1.40;1.00;;;20.20;99.90;;;;;;5142499;27;20522;-42
2021/09/11 02:54:19;;;;;;;3.40;1.30;;;20.10;99.90;;;;;;5141335;27;20441;-42
2021/09/11 02:56:51;;;;;;;1.17;1.07;;;20.00;99.90;;;;;;5144770;27;20445;-41
2021/09/11 02:59:22;;;;;;;1.20;1.10;;;19.90;99.90;;;;;;5128772;27;21022;-41
2021/09/11 03:01:53;;;;;;;1.07;1.00;;;19.90;99.90;;;;;;5145772;27;20429;-42
2021/09/11 03:04:24;;;;;;;2.20;1.00;;;19.80;99.90;;;;;;5133298;27;20452;-41
2021/09/11 03:06:55;;;;;;;0.70;0.70;;;19.70;99.90;;;;;;5145210;27;20449;-41
2021/09/11 03:09:26;;;;;;;1.20;0.80;;;19.70;99.90;;;;;;5142156;27;20464;-42
2021/09/11 03:11:59;;;;;;;1.00;0.90;;;19.70;99.90;;;;;;5146148;27;20412;-42
2021/09/11 03:14:30;;;;;;;1.13;0.80;;;19.70;99.90;;;;;;5129180;27;20419;-41
2021/09/11 03:17:01;;;;;;;1.23;0.80;;;19.60;99.90;;;;;;5146478;27;20484;-41
2021/09/11 03:19:32;;;;;;;1.17;0.90;;;19.50;99.90;;;;;;5145092;27;20476;-42
2021/09/11 03:22:03;;;;;;;1.10;1.00;;;19.50;99.90;;;;;;5141890;27;20435;-41
2021/09/11 03:24:34;;;;;;;0.90;0.90;;;19.50;99.90;;;;;;5144358;27;20464;-41
2021/09/11 03:27:07;;;;;;;1.20;1.10;;;19.40;99.90;;;;;;5145347;27;20422;-42
2021/09/11 03:29:38;;;;;;;1.10;1.00;;;19.40;99.90;;;;;;5144560;27;20423;-42
2021/09/11 03:32:11;;;;;;;3.23;1.00;;;19.30;99.90;;;;;;5145119;27;20443;-41
2021/09/11 03:34:42;;;;;;;1.10;1.00;;;19.30;99.90;;;;;;5145129;27;20518;-41
2021/09/11 03:37:13;;;;;;;1.00;0.80;;;19.20;99.90;;;;;;5144690;27;20477;-42
2021/09/11 03:39:44;;;;;;;1.50;1.03;;;19.20;99.90;;;;;;5145032;27;20468;-42
2021/09/11 03:42:17;;;;;;;1.23;0.90;;;19.20;99.90;;;;;;5144500;27;20440;-41
2021/09/11 03:44:48;;;;;;;1.43;1.03;;;19.10;99.90;;;;;;5144497;27;20473;-42
2021/09/11 03:47:19;;;;;;;1.23;0.90;;;19.00;99.90;;;;;;5144499;27;20435;-42
2021/09/11 03:49:50;;;;;;;1.20;1.10;;;19.10;99.90;;;;;;5144798;27;20455;-41
2021/09/11 03:52:21;;;;;;;2.07;1.10;;;19.00;99.90;;;;;;5144596;27;20480;-42
2021/09/11 03:54:52;;;;;;;2.40;1.03;;;19.00;99.90;;;;;;5144178;27;20416;-42
2021/09/11 03:57:24;;;;;;;1.23;0.90;;;19.00;99.90;;;;;;5144561;27;20448;-42
2021/09/11 03:59:55;;;;;;;1.30;1.13;;;19.00;99.90;;;;;;5143572;27;20456;-41
2021/09/11 04:02:26;;;;;;;1.47;1.33;;;19.00;99.90;;;;;;5144930;27;20453;-42
2021/09/11 04:04:58;;;;;;;1.40;1.00;;;19.00;99.90;;;;;;5145262;27;20419;-41
2021/09/11 04:07:28;;;;;;;1.43;1.13;;;18.90;99.90;;;;;;5142461;27;20431;-42
2021/09/11 04:09:59;;;;;;;1.23;1.13;;;19.00;99.90;;;;;;5142361;27;20444;-42
2021/09/11 04:12:33;;;;;;;1.10;1.00;;;19.00;99.90;;;;;;5144024;27;20769;-42
2021/09/11 04:15:04;;;;;;;1.43;1.20;;;18.90;99.90;;;;;;5144406;27;20451;-42
2021/09/11 04:17:35;;;;;;;1.40;1.20;;;18.90;99.90;;;;;;5143769;27;20462;-41
2021/09/11 04:20:07;;;;;;;1.50;1.40;;;18.80;99.90;;;;;;5143630;27;20536;-42
2021/09/11 04:22:38;;;;;;;1.50;1.40;;;18.80;99.90;;;;;;5143340;27;20419;-41
2021/09/11 04:25:10;;;;;;;2.77;1.13;;;18.70;99.90;;;;;;5143818;27;20449;-42
2021/09/11 04:27:43;;;;;;;2.07;1.47;;;18.70;99.90;;;;;;5143150;27;20462;-42
2021/09/11 04:30:14;;;;;;;2.70;1.40;;;18.60;99.90;;;;;;5134109;27;20453;-42
2021/09/11 04:32:46;;;;;;;1.77;1.40;;;18.50;99.90;;;;;;5143489;27;20454;-43
2021/09/11 04:35:17;;;;;;;2.07;1.87;;;18.50;99.90;;;;;;5143785;27;20501;-43
2021/09/11 04:37:48;;;;;;;1.17;1.07;;;18.50;99.90;;;;;;5142687;27;20420;-43
2021/09/11 04:40:19;;;;;;;3.07;1.13;;;18.40;99.90;;;;;;5144121;27;20468;-43
2021/09/11 04:42:52;;;;;;;2.03;1.23;;;18.40;99.90;;;;;;5142581;27;20448;-44
2021/09/11 04:45:23;;;;;;;1.60;1.20;;;18.30;99.90;;;;;;5142694;27;20419;-44
2021/09/11 04:47:54;;;;;;;3.90;1.60;;;18.20;99.90;;;;;;5143155;27;20453;-44
2021/09/11 04:50:25;;;;;;;1.50;1.40;;;18.20;99.90;;;;;;5143142;27;20442;-44
2021/09/11 04:52:57;;;;;;;1.63;1.17;;;18.20;99.90;;;;;;5143852;27;20539;-43
2021/09/11 04:55:28;;;;;;;1.30;1.20;;;18.10;99.90;;;;;;5142660;27;20411;-43
2021/09/11 04:58:00;;;;;;;2.00;1.17;;;18.10;99.90;;;;;;5137483;27;20473;-43
2021/09/11 05:00:31;;;;;;;1.30;1.20;;;18.10;99.90;;;;;;5143019;27;20796;-43
2021/09/11 05:03:02;;;;;;;2.80;1.47;;;18.10;99.90;;;;;;5144215;27;20448;-43
2021/09/11 05:05:34;;;;;;;2.70;1.30;;;18.10;99.90;;;;;;5142581;28;20437;-43
2021/09/11 05:08:05;;;;;;;1.50;1.40;;;18.20;99.90;;;;;;5139012;28;20940;-43
2021/09/11 05:10:36;;;;;;;2.23;1.67;;;18.00;99.90;;;;;;5140894;27;20449;-43
2021/09/11 05:13:08;;;;;;;1.20;1.10;;;17.90;99.90;;;;;;5137139;28;20441;-43
2021/09/11 05:15:40;;;;;;;1.43;1.33;;;17.90;99.90;;;;;;5144067;27;20431;-43
2021/09/11 05:18:10;;;;;;;1.60;1.50;;;17.80;99.90;;;;;;5138319;28;20483;-44
2021/09/11 05:20:41;;;;;;;1.70;1.60;;;18.00;99.90;;;;;;5126829;28;20448;-43
2021/09/11 05:23:12;;;;;;;2.73;1.80;;;17.90;99.90;;;;;;5143468;27;20871;-44
2021/09/11 05:25:43;;;;;;;2.50;1.50;;;17.90;99.90;;;;;;5143006;27;20884;-43
2021/09/11 05:28:16;;;;;;;2.73;1.50;;;17.90;99.90;;;;;;5139104;28;20449;-43
2021/09/11 05:30:47;;;;;;;1.40;1.30;;;17.90;99.90;;;;;;5126280;28;20579;-44
2021/09/11 05:33:18;;;;;;;2.47;1.30;;;17.90;99.90;;;;;;5142340;27;20535;-42
2021/09/11 05:35:49;;;;;;;2.40;1.23;;;17.80;99.90;;;;;;5134486;28;20442;-42
2021/09/11 05:38:21;;;;;;;2.10;1.40;;;17.80;99.90;;;;;;5142937;28;20452;-42
2021/09/11 05:40:52;;;;;;;3.30;1.63;;;17.90;99.90;;;;;;5141973;28;20460;-43
2021/09/11 05:43:24;;;;;;;2.73;1.80;;;17.80;99.90;;;;;;5143391;27;20454;-44
2021/09/11 05:45:56;;;;;;;1.90;1.80;;;17.80;99.90;;;;;;5141306;28;20453;-42
2021/09/11 05:48:27;;;;;;;2.83;1.47;;;17.80;99.90;;;;;;5143300;28;20445;-43
2021/09/11 05:50:58;;;;;;;2.17;1.43;;;17.80;99.90;;;;;;5143295;27;20443;-42
2021/09/11 05:53:28;;;;;;;1.57;1.47;;;17.70;99.90;;;;;;5138096;27;20432;-42
2021/09/11 05:55:59;;;;;;;1.63;1.53;;;17.70;99.90;;;;;;5145886;27;20452;-42
2021/09/11 05:58:32;;;;;;;2.37;1.57;;;17.70;99.90;;;;;;5145989;27;20448;-42
2021/09/11 06:01:03;;;;;;;1.80;1.70;;;17.60;99.90;;;;;;5145217;27;20492;-42
2021/09/11 06:03:35;;;;;;;2.30;1.77;;;17.50;99.90;;;;;;5144704;27;20445;-42
2021/09/11 06:06:07;;;;;;;1.70;1.60;;;17.50;99.90;;;;;;5146234;27;20487;-41
2021/09/11 06:08:38;;;;;;;4.20;1.87;;;17.50;99.90;;;;;;5147008;27;20443;-41
2021/09/11 06:11:09;;;;;;;1.43;1.30;;;17.50;99.90;;;;;;5146602;27;20467;-42
2021/09/11 06:13:42;;;;;;;1.60;1.50;;;17.50;99.90;;;;;;5146299;27;20453;-42
2021/09/11 06:16:13;;;;;;;3.40;1.60;;;17.50;99.90;;;;;;5130755;27;20415;-41
2021/09/11 06:18:44;;;;;;;1.30;1.20;;;17.50;99.90;;;;;;5146522;27;20455;-42
2021/09/11 06:21:15;;;;;;;1.50;1.30;;;17.50;99.90;;;;;;5147248;27;20416;-42
2021/09/11 06:23:46;;;;;;;1.73;1.53;;;17.50;99.90;;;;;;5145858;27;20540;-42
2021/09/11 06:26:17;;;;;;;1.40;1.30;;;17.40;99.90;;;;;;5146371;27;20480;-42
2021/09/11 06:28:49;;;;;;;2.23;1.50;;;17.40;99.90;;;;;;5145473;27;20449;-42
2021/09/11 06:31:20;;;;;;;4.63;1.80;;;17.40;99.90;;;;;;5146305;27;20460;-41
2021/09/11 06:33:51;;;;;;;2.30;1.67;;;17.40;99.90;;;;;;5145869;27;20451;-42
2021/09/11 06:36:22;;;;;;;2.20;2.00;;;17.40;99.90;;;;;;5146444;27;20481;-42
2021/09/11 06:38:53;;;;;;;2.03;1.80;;;17.30;99.90;;;;;;5144971;27;20660;-42
2021/09/11 06:41:25;;;;;;;2.10;1.60;;;17.30;99.90;;;;;;5145637;27;20508;-41
2021/09/11 06:43:58;;;;;;;1.60;1.43;;;17.20;99.90;;;;;;5144288;27;20480;-42
2021/09/11 06:46:31;;;;;;;1.70;1.60;;;17.20;99.90;;;;;;5146103;27;20505;-42
2021/09/11 06:49:02;;;;;;;2.80;2.30;;;17.20;99.90;;;;;;5145256;27;20445;-42
2021/09/11 06:51:33;;;;;;;2.33;2.13;;;17.20;99.90;;;;;;5145262;27;21158;-42
2021/09/11 06:54:04;;;;;;;3.33;1.77;;;17.20;99.90;;;;;;5143596;27;20472;-41
2021/09/11 06:56:35;;;;;;;2.47;1.90;;;17.10;99.90;;;;;;5146291;27;20437;-42
2021/09/11 06:59:08;;;;;;;2.80;2.07;;;17.00;99.90;;;;;;5144701;27;20463;-42
2021/09/11 07:01:39;;;;;;;2.43;2.33;;;16.90;99.90;;;;;;5144496;27;20457;-42
2021/09/11 07:04:10;;;;;;;2.43;2.23;;;16.80;99.90;;;;;;5145090;27;20464;-42
2021/09/11 07:06:41;;;;;;;2.53;2.33;;;16.70;99.90;;;;;;5145262;27;20446;-42
2021/09/11 07:09:12;;;;;;;2.57;2.10;;;16.60;99.90;;;;;;5144082;27;20548;-42
2021/09/11 07:11:43;;;;;;;2.30;1.80;;;16.50;99.90;;;;;;5145374;27;20472;-42
2021/09/11 07:14:16;;;;;;;2.47;2.27;;;16.30;99.90;;;;;;5144137;27;20455;-42
2021/09/11 07:16:47;;;;;;;2.23;2.03;;;16.30;99.90;;;;;;5129675;27;20441;-42
2021/09/11 07:19:18;;;;;;;2.60;2.40;;;16.20;99.90;;;;;;5144515;27;20477;-42
2021/09/11 07:21:49;;;;;;;4.03;2.30;;;16.20;99.90;;;;;;5145983;27;20939;-42
2021/09/11 07:24:19;;;;;;;4.63;2.33;;;16.10;99.90;;;;;;5144392;27;20453;-42
2021/09/11 07:26:51;;;;;;;2.60;2.40;;;16.00;99.90;;;;;;5144326;27;20509;-42
2021/09/11 07:29:23;;;;;;;2.33;2.13;;;16.00;99.90;;;;;;5144093;27;20471;-42
2021/09/11 07:31:54;;;;;;;3.03;2.10;;;15.90;99.90;;;;;;5144343;27;20533;-42
2021/09/11 07:34:25;;;;;;;2.23;2.13;;;15.70;99.90;;;;;;5144447;27;20445;-42
2021/09/11 07:36:56;;;;;;;2.77;2.33;;;15.60;99.90;;;;;;5145094;27;20504;-42
2021/09/11 07:39:27;;;;;;;2.93;2.30;;;15.50;99.90;;;;;;5143617;27;20480;-42
2021/09/11 07:41:58;;;;;;;3.10;2.57;;;15.60;99.90;;;;;;5144388;27;20444;-42
2021/09/11 07:44:31;;;;;;;4.10;2.03;;;15.60;99.90;;;;;;5140512;27;20473;-41
2021/09/11 07:47:02;;;;;;;2.40;2.20;;;15.60;99.90;;;;;;5144568;27;20448;-42
2021/09/11 07:49:33;;;;;;;4.80;2.40;;;15.60;99.90;;;;;;5144942;27;20832;-41
2021/09/11 07:52:03;;;;;;;2.97;2.77;;;15.70;99.90;;;;;;5144845;27;20920;-41
2021/09/11 07:54:34;;;;;;;2.10;1.90;;;15.70;99.90;;;;;;5143196;27;21182;-42
2021/09/11 07:57:06;;;;;;;3.00;2.63;;;15.70;99.90;;;;;;5144620;27;20923;-42
2021/09/11 07:59:38;;;;;;;2.27;2.10;;;15.80;99.90;;;;;;5143290;27;22269;-42
2021/09/11 08:02:10;;;;;;;2.90;2.50;;;15.90;99.90;;;;;;5143851;27;20452;-42
2021/09/11 08:04:41;;;;;;;2.47;2.10;;;15.90;99.90;;;;;;5138848;27;20456;-42
2021/09/11 08:07:12;;;;;;;2.53;2.10;;;15.90;99.90;;;;;;5144504;27;20467;-42
2021/09/11 08:09:43;;;;;;;3.80;2.43;;;15.80;99.90;;;;;;5143150;27;20971;-42
2021/09/11 08:12:14;;;;;;;3.20;2.10;;;15.80;99.90;;;;;;5142330;27;20445;-42
2021/09/11 08:14:46;;;;;;;2.40;2.20;;;15.90;99.90;;;;;;5142718;27;20451;-42
2021/09/11 08:17:17;;;;;;;3.70;2.60;;;15.80;99.90;;;;;;5144404;27;20439;-41
2021/09/11 08:19:48;;;;;;;3.57;2.67;;;15.70;99.90;;;;;;5143645;27;20437;-42
2021/09/11 08:22:19;;;;;;;3.10;2.80;;;15.60;99.90;;;;;;5144130;27;20449;-42
2021/09/11 08:24:51;;;;;;;2.60;2.40;;;15.50;99.90;;;;;;5142058;27;20501;-42
2021/09/11 08:27:22;;;;;;;3.03;2.73;;;15.40;99.90;;;;;;5143661;27;20540;-42
2021/09/11 08:29:54;;;;;;;3.50;3.20;;;15.40;99.90;;;;;;5143713;27;20460;-42
2021/09/11 08:35:33;;;;;;;3.07;2.50;;;15.30;99.90;;;;;;5140821;27;20453;-42
2021/09/11 08:38:04;;;;;;;2.97;2.50;;;15.10;99.90;;;;;;5143500;27;20587;-42
2021/09/11 08:40:42;;;;;;;4.37;2.70;;;15.00;99.90;;;;;;5143039;27;20518;-42
2021/09/11 08:43:17;;;;;;;2.30;2.10;;;14.90;99.90;;;;;;5142873;27;20441;-41
2021/09/11 08:45:50;;;;;;;3.00;2.80;;;14.90;99.90;;;;;;5143564;27;20444;-42
2021/09/11 08:48:21;;;;;;;3.47;3.17;;;14.90;99.90;;;;;;5143441;27;20448;-42
2021/09/11 08:50:52;;;;;;;2.93;2.63;;;14.80;99.90;;;;;;5126789;27;20532;-42
2021/09/11 08:53:23;;;;;;;2.67;2.30;;;14.70;99.90;;;;;;5143778;27;20448;-42
2021/09/11 08:55:54;;;;;;;3.90;2.83;;;14.70;99.90;;;;;;5143022;27;20559;-42
2021/09/11 08:58:25;;;;;;;3.63;2.37;;;14.70;99.90;;;;;;5142821;27;20480;-42
2021/09/11 09:01:03;;;;;;;2.90;2.63;;;14.60;99.90;;;;;;5127065;28;20509;-42
2021/09/11 09:03:39;;;;;;;2.80;2.60;;;14.60;99.90;;;;;;5142814;27;20448;-42
2021/09/11 09:06:20;;;;;;;3.23;2.43;;;14.50;99.90;;;;;;5136537;28;20441;-42
2021/09/11 09:08:54;;;;;;;3.17;2.80;;;14.50;99.90;;;;;;5142399;27;20505;-42
2021/09/11 09:11:27;;;;;;;4.03;2.60;;;14.50;99.90;;;;;;5143458;28;20479;-42
2021/09/11 09:14:00;;;;;;;4.20;2.60;;;14.50;99.90;;;;;;5142149;27;20484;-42
2021/09/11 09:16:35;;;;;;;3.30;2.83;;;14.50;99.90;;;;;;5143685;27;20470;-42
2021/09/11 09:19:14;;;;;;;2.97;2.77;;;14.50;99.90;;;;;;5143347;27;20444;-42
2021/09/11 09:21:47;;;;;;;3.13;2.83;;;14.50;99.90;;;;;;5143223;27;20490;-42
2021/09/11 09:24:30;;;;;;;3.90;2.40;;;14.40;99.90;;;;;;5141088;27;20485;-42
2021/09/11 09:27:03;;;;;;;3.03;2.70;;;14.40;99.90;;;;;;5143495;27;20433;-42
2021/09/11 09:29:37;;;;;;;3.40;3.00;;;14.40;99.90;;;;;;5144853;27;20444;-42
2021/09/11 09:32:11;;;;;;;4.13;2.67;;;14.50;99.90;;;;;;5146764;27;20470;-42
2021/09/11 09:34:44;;;;;;;3.00;2.67;;;14.40;99.90;;;;;;5146727;27;20602;-42
2021/09/11 09:37:18;;;;;;;2.77;2.57;;;14.50;99.90;;;;;;5146859;27;20445;-42
2021/09/11 09:39:51;;;;;;;2.60;2.30;;;14.50;99.90;;;;;;5146664;27;20441;-42
2021/09/11 09:42:21;;;;;;;3.47;3.13;;;14.50;99.90;;;;;;5146145;27;20476;-42
2021/09/11 09:44:57;;;;;;;3.43;3.13;;;14.40;99.90;;;;;;5147221;27;20483;-43
2021/09/11 09:47:30;;;;;;;3.17;2.87;;;14.40;99.90;;;;;;5146967;27;20481;-42
2021/09/11 09:50:09;;;;;;;4.60;3.37;;;14.50;99.90;;;;;;5146766;27;20448;-43
2021/09/11 09:52:41;;;;;;;3.63;2.87;;;14.60;99.90;;;;;;5144108;27;20497;-43
2021/09/11 09:55:16;;;;;;;5.50;3.10;;;14.60;99.90;;;;;;5146498;27;20469;-42
2021/09/11 09:57:49;;;;;;;3.33;2.87;;;14.60;99.90;;;;;;5146509;27;20435;-42
2021/09/11 10:00:20;;;;;;;2.63;2.30;;;14.70;99.90;;;;;;5147392;27;20547;-42
2021/09/11 10:02:52;;;;;;;3.27;2.97;;;14.70;99.90;;;;;;5142297;27;20491;-42
2021/09/11 10:05:29;;;;;;;2.73;2.50;;;14.80;99.90;;;;;;5146350;27;20497;-43
2021/09/11 10:08:05;;;;;;;3.23;2.93;;;14.90;99.90;;;;;;5146150;27;20490;-42
2021/09/11 10:10:39;;;;;;;2.70;2.40;;;14.90;99.90;;;;;;5143391;27;20445;-43
2021/09/11 10:13:12;;;;;;;5.03;2.90;;;14.90;99.90;;;;;;5145438;27;20445;-42
2021/09/11 10:15:55;;;;;;;2.47;2.20;;;15.00;99.90;;;;;;5143890;27;20552;-42
2021/09/11 10:18:46;;;;;;;2.70;2.50;;;15.10;99.90;;;;;;5134053;27;20469;-42
2021/09/11 10:21:35;;;;;;;3.03;2.67;;;15.10;99.90;;;;;;5146567;27;20507;-41
2021/09/11 10:24:28;;;;;;;3.00;2.73;;;15.10;99.90;;;;;;5143961;27;21127;-42
2021/09/11 10:27:01;;;;;;;4.10;2.60;;;15.10;99.90;;;;;;5146225;27;20441;-42
2021/09/11 10:29:56;;;;;;;3.23;2.77;;;15.20;99.90;;;;;;5145737;27;20543;-42
2021/09/11 10:32:38;;;;;;;3.30;2.60;;;15.20;99.90;;;;;;5145163;27;20496;-42
2021/09/11 10:35:14;;;;;;;2.97;2.50;;;15.30;99.90;;;;;;5136290;27;20448;-41
2021/09/11 10:37:49;;;;;;;2.80;2.47;;;15.30;99.90;;;;;;5145623;27;20491;-42
2021/09/11 10:40:27;;;;;;;4.50;2.90;;;15.30;99.90;;;;;;5144019;27;20490;-42
2021/09/11 10:43:16;;;;;;;3.23;2.97;;;15.30;99.90;;;;;;5145566;27;20496;-41
2021/09/11 10:45:56;;;;;;;3.70;3.27;;;15.40;99.90;;;;;;5145604;27;20456;-42
2021/09/11 10:48:49;;;;;;;2.80;2.60;;;15.40;99.90;;;;;;5145472;27;20457;-42
2021/09/11 10:51:35;;;;;;;5.40;3.00;;;15.40;99.90;;;;;;5145565;27;20460;-42
2021/09/11 10:54:14;;;;;;;3.30;2.80;;;15.40;99.90;;;;;;5144619;27;20448;-43
2021/09/11 10:57:06;;;;;;;2.77;2.57;;;15.50;99.90;;;;;;5141605;27;20441;-42
2021/09/11 10:59:40;;;;;;;4.63;2.70;;;15.50;99.90;;;;;;5134939;27;20449;-42
2021/09/11 11:02:35;;;;;;;3.10;2.80;;;15.50;99.90;;;;;;5145490;27;20545;-43
2021/09/11 11:05:09;;;;;;;3.67;2.83;;;15.60;99.90;;;;;;5144563;27;20569;-42
2021/09/11 11:07:48;;;;;;;4.87;2.93;;;15.60;99.90;;;;;;5145001;27;20436;-42
2021/09/11 11:10:21;;;;;;;2.90;2.70;;;15.50;99.90;;;;;;5145699;27;20470;-42
2021/09/11 11:12:53;;;;;;;3.97;2.90;;;15.60;99.90;;;;;;5144365;27;20482;-42
2021/09/11 11:15:27;;;;;;;3.30;2.73;;;15.60;99.90;;;;;;5144888;27;20474;-42
2021/09/11 11:17:58;;;;;;;2.70;2.50;;;15.50;99.90;;;;;;5145241;27;20512;-42
2021/09/11 11:20:30;;;;;;;3.20;2.90;;;15.50;99.90;;;;;;5145493;27;20565;-43
2021/09/11 11:23:03;;;;;;;3.10;2.90;;;15.40;99.90;;;;;;5143891;27;20492;-43
2021/09/11 11:25:38;;;;;;;4.60;3.33;;;15.50;99.90;;;;;;5144914;27;20441;-42
2021/09/11 11:28:10;;;;;;;3.50;2.73;;;15.40;99.90;;;;;;5144731;27;20466;-43
2021/09/11 11:30:47;;;;;;;3.30;2.93;;;15.40;99.90;;;;;;5144544;27;20444;-48
2021/09/11 11:33:19;;;;;;;3.60;2.63;;;15.40;99.90;;;;;;5144327;27;20983;-42
2021/09/11 11:35:50;;;;;;;4.07;2.47;;;15.30;99.90;;;;;;5135593;27;20469;-42
2021/09/11 11:38:22;;;;;;;3.77;3.47;;;15.30;99.90;;;;;;5144263;27;20448;-42
2021/09/11 11:40:54;;;;;;;3.17;2.50;;;15.20;99.90;;;;;;5144920;27;20461;-42
2021/09/11 11:43:25;;;;;;;5.03;3.03;;;15.10;99.90;;;;;;5141839;27;20511;-42
2021/09/11 11:45:59;;;;;;;3.70;2.70;;;15.10;99.90;;;;;;5143815;27;20532;-42
2021/09/11 11:48:30;;;;;;;6.47;3.43;;;15.10;99.90;;;;;;5144971;27;20453;-42
2021/09/11 11:51:02;;;;;;;3.40;3.20;;;15.00;99.90;;;;;;5144896;27;20464;-42
2021/09/11 11:53:34;;;;;;;3.27;2.97;;;14.90;99.90;;;;;;5143249;27;20449;-41
2021/09/11 11:56:08;;;;;;;4.03;2.90;;;14.70;99.90;;;;;;5143806;27;20448;-42
2021/09/11 11:58:39;;;;;;;3.47;2.90;;;14.60;99.90;;;;;;5143638;27;20479;-42
2021/09/11 12:01:10;;;;;;;6.97;3.40;;;14.60;99.90;;;;;;5144338;27;20444;-41
2021/09/11 12:03:45;;;;;;;3.13;2.83;;;14.50;99.90;;;;;;5143538;27;20476;-42
2021/09/11 12:06:27;;;;;;;3.57;3.27;;;14.40;99.90;;;;;;5143874;27;20456;-42
2021/09/11 12:09:06;;;;;;;4.17;3.20;;;14.30;99.90;;;;;;5143372;27;20960;-42
2021/09/11 12:11:37;;;;;;;4.17;3.03;;;14.30;99.90;;;;;;5143862;27;20403;-42
2021/09/11 12:14:08;;;;;;;3.17;2.90;;;14.10;99.90;;;;;;5143326;27;20460;-42
2021/09/11 12:16:39;;;;;;;3.53;3.23;;;14.00;99.90;;;;;;5142466;27;20437;-42
2021/09/11 12:19:14;;;;;;;3.53;3.20;;;14.00;99.90;;;;;;5144095;27;20477;-42
2021/09/11 12:21:45;;;;;;;3.77;3.33;;;13.90;99.90;;;;;;5143980;27;20478;-42
2021/09/11 12:24:26;;;;;;;2.83;2.53;;;13.80;99.90;;;;;;5142854;27;20470;-42
2021/09/11 12:27:11;;;;;;;4.07;2.90;;;13.80;99.90;;;;;;5143901;27;20452;-42
2021/09/11 12:29:42;;;;;;;4.23;3.10;;;13.80;99.90;;;;;;5142978;27;20469;-42
2021/09/11 12:32:20;;;;;;;4.70;2.97;;;13.70;99.90;;;;;;5133698;27;20511;-41
2021/09/11 12:34:51;;;;;;;3.90;3.60;;;13.60;99.90;;;;;;5143923;27;20444;-41
2021/09/11 12:37:22;;;;;;;3.70;3.23;;;13.50;99.90;;;;;;5143467;27;20449;-42
2021/09/11 12:39:59;;;;;;;4.07;3.73;;;13.50;99.90;;;;;;5142653;27;20457;-42
2021/09/11 12:42:29;;;;;;;3.43;3.13;;;13.50;99.90;;;;;;5128052;27;20536;-42
2021/09/11 12:45:01;;;;;;;3.83;3.53;;;13.50;99.90;;;;;;5144028;27;20494;-42
2021/09/11 12:47:31;;;;;;;5.83;3.27;;;13.40;99.90;;;;;;5143365;27;20474;-42
2021/09/11 12:50:02;;;;;;;3.63;3.33;;;13.30;99.90;;;;;;5142586;27;20470;-42
2021/09/11 12:52:33;;;;;;;3.80;3.50;;;13.30;99.90;;;;;;5142093;27;20479;-42
2021/09/11 12:55:06;;;;;;;3.80;3.50;;;13.30;99.90;;;;;;5143213;27;20499;-42
2021/09/11 12:57:37;;;;;;;3.40;3.10;;;13.30;99.90;;;;;;5142723;27;20472;-42
2021/09/11 13:00:09;;;;;;;3.80;3.40;;;13.20;99.90;;;;;;5142671;27;20483;-42
2021/09/11 13:02:40;;;;;;;4.40;4.00;;;13.20;99.90;;;;;;5143528;27;20480;-42
2021/09/11 13:05:12;;;;;;;3.63;3.20;;;13.20;99.90;;;;;;5142472;27;20539;-42
2021/09/11 13:07:43;;;;;;;3.80;3.40;;;13.20;99.90;;;;;;5142889;27;20463;-42
2021/09/11 13:10:16;;;;;;;3.70;3.40;;;13.20;99.90;;;;;;5143129;27;20458;-42
2021/09/11 13:12:47;;;;;;;3.57;3.27;;;13.10;99.90;;;;;;5142896;28;20429;-42
2021/09/11 13:15:18;;;;;;;4.07;3.67;;;13.10;99.90;;;;;;5143050;27;20524;-41
2021/09/11 13:17:49;;;;;;;3.90;3.03;;;13.00;99.90;;;;;;5142700;28;20502;-42
2021/09/11 13:20:20;;;;;;;4.10;3.70;;;13.00;99.90;;;;;;5141301;28;20441;-42